Terminal Aerodrome Forecast
Issued by NWS

Home | Current Version | Previous Version | Text Only | Print | Product List | Glossary On
Versions: 1 2 3 4 5 6 7 8 9 10 11 12 13 14 15 16 17 18 19 20 21 22 23 24
000
FTAK31 PANC 032323
TAFADQ
TAF
PADQ 032323Z 0400/0424 08010KT P6SM FEW015 SCT200
     FM040400 09010KT P6SM BKN015
     FM041200 09008KT 5SM -RA BR OVC008
     FM042000 10006KT P6SM SCT010 BKN015=

USA.gov is the U.S. government's official web portal to all federal, state and local government web resources and services.